createdAt,value
2022-11-12T00:01:34.824Z,100466.60
2022-11-12T00:04:21.266Z,100466.05
2022-11-12T00:07:07.625Z,100464.88
2022-11-12T00:09:54.245Z,100466.81
2022-11-12T00:12:40.729Z,100467.88
2022-11-12T00:15:27.636Z,100471.55
2022-11-12T00:18:14.120Z,100465.61
2022-11-12T00:21:00.538Z,100468.86
2022-11-12T00:23:46.937Z,100462.73
2022-11-12T00:26:33.569Z,100464.48
2022-11-12T00:29:19.681Z,100464.42
2022-11-12T00:32:06.902Z,100465.31
2022-11-12T00:34:53.450Z,100469.77
2022-11-12T00:37:39.787Z,100468.95
2022-11-12T00:40:26.847Z,100475.77
2022-11-12T00:43:13.330Z,100474.83
2022-11-12T00:45:59.720Z,100474.89
2022-11-12T00:48:46.191Z,100477.95
2022-11-12T00:51:34.937Z,100476.11
2022-11-12T00:54:21.116Z,100474.42
2022-11-12T00:57:07.610Z,100471.11
2022-11-12T00:59:54.073Z,100464.59
2022-11-12T01:02:45.245Z,100463.52
2022-11-12T01:05:34.813Z,100467.44
2022-11-12T01:08:21.212Z,100465.90
2022-11-12T01:11:13.164Z,100467.52
2022-11-12T01:14:01.688Z,100462.39
2022-11-12T01:16:48.131Z,100467.56
2022-11-12T01:19:34.468Z,100462.91
2022-11-12T01:22:20.710Z,100461.08
2022-11-12T01:25:10.502Z,100458.95
2022-11-12T01:27:56.943Z,100455.77
2022-11-12T01:30:43.377Z,100455.56
2022-11-12T01:33:29.634Z,100455.23
2022-11-12T01:36:17.983Z,100457.63
2022-11-12T01:39:06.402Z,100456.80
2022-11-12T01:41:52.591Z,100454.85
2022-11-12T01:44:40.160Z,100458.98
2022-11-12T01:47:31.268Z,100459.77
2022-11-12T01:50:20.888Z,100460.23
2022-11-12T01:53:10.224Z,100458.17
2022-11-12T01:55:57.408Z,100460.99
2022-11-12T01:58:45.306Z,100460.02
2022-11-12T02:01:31.944Z,100460.33
2022-11-12T02:04:18.911Z,100461.55
2022-11-12T02:07:06.882Z,100468.02
2022-11-12T02:09:53.460Z,100466.66
2022-11-12T02:12:58.289Z,100469.13
2022-11-12T02:15:45.005Z,100466.60
2022-11-12T02:18:31.293Z,100467.90
2022-11-12T02:21:22.057Z,100467.38
2022-11-12T02:24:11.409Z,100471.23
2022-11-12T02:26:57.877Z,100470.39
2022-11-12T02:29:47.374Z,100471.73
2022-11-12T02:32:33.680Z,100476.13
2022-11-12T02:35:19.925Z,100476.71
2022-11-12T02:38:07.622Z,100479.08
2022-11-12T02:40:54.113Z,100484.27
2022-11-12T02:43:40.966Z,100487.38
2022-11-12T02:46:27.499Z,100490.46
2022-11-12T02:49:13.940Z,100495.02
2022-11-12T02:52:00.228Z,100495.10
2022-11-12T02:54:46.883Z,100497.35
2022-11-12T02:57:33.340Z,100493.92
2022-11-12T03:00:19.899Z,100490.34
2022-11-12T03:03:06.368Z,100491.13
2022-11-12T03:05:57.286Z,100491.09
2022-11-12T03:08:43.473Z,100493.39
2022-11-12T03:11:29.878Z,100496.04
2022-11-12T03:14:16.503Z,100501.78
2022-11-12T03:17:02.978Z,100502.79
2022-11-12T03:19:49.199Z,100505.87
2022-11-12T03:22:35.532Z,100502.39
2022-11-12T03:25:21.956Z,100500.23
2022-11-12T03:28:10.643Z,100502.21
2022-11-12T03:30:59.260Z,100503.09
2022-11-12T03:33:45.821Z,100502.70
2022-11-12T03:36:31.997Z,100504.23
2022-11-12T03:39:18.321Z,100503.23
2022-11-12T03:42:04.990Z,100502.14
2022-11-12T03:44:51.226Z,100501.67
2022-11-12T03:47:44.189Z,100501.23
2022-11-12T03:50:30.809Z,100500.15
2022-11-12T03:53:17.244Z,100495.02
2022-11-12T03:56:03.959Z,100493.30
2022-11-12T03:58:50.084Z,100488.78
2022-11-12T04:01:36.353Z,100490.60
2022-11-12T04:04:22.708Z,100485.21
2022-11-12T04:07:27.699Z,100484.98
2022-11-12T04:10:14.305Z,100488.12
2022-11-12T04:13:19.257Z,100481.95
2022-11-12T04:16:26.341Z,100487.36
2022-11-12T04:19:32.677Z,100483.86
2022-11-12T04:22:19.115Z,100480.14
2022-11-12T04:25:24.503Z,100479.82
2022-11-12T04:28:11.214Z,100477.83
2022-11-12T04:30:57.619Z,100472.20
2022-11-12T04:33:43.969Z,100473.77
2022-11-12T04:36:30.470Z,100468.29
2022-11-12T04:39:16.964Z,100469.72
2022-11-12T04:42:22.541Z,100467.58
2022-11-12T04:45:10.309Z,100473.28
2022-11-12T04:47:56.840Z,100471.23
2022-11-12T04:50:45.217Z,100469.75
2022-11-12T04:53:31.616Z,100465.42
2022-11-12T04:56:17.824Z,100471.77
2022-11-12T04:59:04.079Z,100465.75
2022-11-12T05:01:50.688Z,100466.70
2022-11-12T05:04:36.839Z,100465.30
2022-11-12T05:07:23.287Z,100470.19
2022-11-12T05:10:09.940Z,100471.69
2022-11-12T05:12:56.371Z,100477.33
2022-11-12T05:15:44.088Z,100479.94
2022-11-12T05:18:30.405Z,100487.50
2022-11-12T05:21:40.583Z,100484.15
2022-11-12T05:24:41.537Z,100482.38
2022-11-12T05:27:28.581Z,100484.23
2022-11-12T05:30:14.865Z,100486.79
2022-11-12T05:33:01.461Z,100486.79
2022-11-12T05:35:47.844Z,100491.55
2022-11-12T05:38:34.270Z,100495.53
2022-11-12T05:41:20.707Z,100498.83
2022-11-12T05:44:07.510Z,100500.63
2022-11-12T05:46:53.739Z,100505.88
2022-11-12T05:49:40.183Z,100506.29
2022-11-12T05:52:26.595Z,100509.85
2022-11-12T05:55:13.349Z,100508.77
2022-11-12T05:58:04.812Z,100503.77
2022-11-12T06:00:51.172Z,100507.13
2022-11-12T06:03:37.583Z,100507.43
2022-11-12T06:06:24.517Z,100513.88
2022-11-12T06:09:11.307Z,100513.95
2022-11-12T06:11:57.855Z,100515.77
2022-11-12T06:14:44.312Z,100517.95
2022-11-12T06:17:30.955Z,100517.61
2022-11-12T06:20:17.466Z,100519.64
2022-11-12T06:23:04.473Z,100526.36
2022-11-12T06:25:50.708Z,100521.76
2022-11-12T06:28:37.298Z,100515.48
2022-11-12T06:31:23.913Z,100520.36
2022-11-12T06:34:12.505Z,100522.06
2022-11-12T06:36:59.036Z,100520.15
2022-11-12T06:39:45.430Z,100519.18
2022-11-12T06:42:31.836Z,100530.02
2022-11-12T06:45:18.390Z,100530.05
2022-11-12T06:48:04.851Z,100528.93
2022-11-12T06:50:51.255Z,100530.30
2022-11-12T06:53:37.667Z,100529.56
2022-11-12T06:56:24.275Z,100536.35
2022-11-12T06:59:10.797Z,100534.85
2022-11-12T07:01:57.249Z,100537.63
2022-11-12T07:04:43.779Z,100540.67
2022-11-12T07:07:30.226Z,100538.72
2022-11-12T07:10:16.674Z,100533.54
2022-11-12T07:13:04.001Z,100534.75
2022-11-12T07:15:50.515Z,100533.38
2022-11-12T07:18:37.017Z,100541.77
2022-11-12T07:21:23.599Z,100540.81
2022-11-12T07:24:10.001Z,100545.70
2022-11-12T07:26:56.286Z,100549.90
2022-11-12T07:29:48.141Z,100550.27
2022-11-12T07:32:38.667Z,100548.64
2022-11-12T07:35:28.406Z,100549.36
2022-11-12T07:38:14.518Z,100553.33
2022-11-12T07:41:15.243Z,100549.56
2022-11-12T07:44:01.760Z,100545.95
2022-11-12T07:46:48.160Z,100542.65
2022-11-12T07:49:34.655Z,100550.06
2022-11-12T07:52:21.614Z,100546.73
2022-11-12T07:55:08.572Z,100540.20
2022-11-12T07:57:59.107Z,100545.24
2022-11-12T08:00:45.330Z,100548.35
2022-11-12T08:03:31.819Z,100548.82
2022-11-12T08:06:18.263Z,100552.45
2022-11-12T08:09:07.220Z,100552.16
2022-11-12T08:11:54.331Z,100552.86
2022-11-12T08:14:40.454Z,100554.40
2022-11-12T08:17:26.864Z,100558.14
2022-11-12T08:20:14.194Z,100562.70
2022-11-12T08:23:00.721Z,100564.44
2022-11-12T08:25:46.915Z,100564.20
2022-11-12T08:28:34.887Z,100566.70
2022-11-12T08:31:22.761Z,100566.09
2022-11-12T08:34:19.952Z,100566.23
2022-11-12T08:37:08.944Z,100571.09
2022-11-12T08:39:55.120Z,100569.45
2022-11-12T08:42:41.249Z,100567.00
2022-11-12T08:45:28.300Z,100570.59
2022-11-12T08:48:14.482Z,100581.44
2022-11-12T08:51:04.478Z,100585.84
2022-11-12T08:53:50.780Z,100587.20
2022-11-12T08:56:38.530Z,100587.27
2022-11-12T08:59:25.580Z,100584.71
2022-11-12T09:02:13.094Z,100590.69
2022-11-12T09:04:59.575Z,100594.73
2022-11-12T09:07:50.662Z,100591.25
2022-11-12T09:10:37.922Z,100592.14
2022-11-12T09:13:24.157Z,100596.23
2022-11-12T09:16:10.659Z,100603.16
2022-11-12T09:18:57.061Z,100607.31
2022-11-12T09:21:43.550Z,100611.08
2022-11-12T09:24:29.996Z,100605.32
2022-11-12T09:27:16.309Z,100601.05
2022-11-12T09:30:03.108Z,100597.91
2022-11-12T09:32:49.238Z,100604.13
2022-11-12T09:35:35.616Z,100605.41
2022-11-12T09:38:22.688Z,100607.31
2022-11-12T09:41:15.928Z,100607.88
2022-11-12T09:44:04.887Z,100605.13
2022-11-12T09:47:00.309Z,100604.62
2022-11-12T09:49:57.960Z,100607.81
2022-11-12T09:52:47.453Z,100604.36
2022-11-12T09:55:36.722Z,100601.48
2022-11-12T09:58:25.165Z,100601.61
2022-11-12T10:01:15.202Z,100607.53
2022-11-12T10:04:22.863Z,100603.33
2022-11-12T10:07:40.551Z,100604.72
2022-11-12T10:10:48.285Z,100603.65
2022-11-12T10:14:08.558Z,100606.43
2022-11-12T10:17:08.987Z,100613.48
2022-11-12T10:20:04.398Z,100612.69
2022-11-12T10:22:53.526Z,100606.65
2022-11-12T10:25:45.824Z,100604.89
2022-11-12T10:28:40.535Z,100608.27
2022-11-12T10:31:26.772Z,100608.77
2022-11-12T10:34:16.031Z,100607.45
2022-11-12T10:37:19.144Z,100605.70
2022-11-12T10:40:21.205Z,100607.42
2022-11-12T10:43:16.245Z,100607.06
2022-11-12T10:46:23.718Z,100613.67
2022-11-12T10:49:16.345Z,100618.04
2022-11-12T10:52:02.475Z,100621.84
2022-11-12T10:54:54.841Z,100616.83
2022-11-12T10:57:41.368Z,100614.40
2022-11-12T11:00:29.330Z,100624.36
2022-11-12T11:03:19.888Z,100619.52
2022-11-12T11:06:20.544Z,100629.39
2022-11-12T11:09:12.713Z,100627.59
2022-11-12T11:11:59.321Z,100630.48
2022-11-12T11:14:45.614Z,100634.52
2022-11-12T11:17:31.904Z,100628.54
2022-11-12T11:20:24.992Z,100631.23
2022-11-12T11:23:20.611Z,100631.91
2022-11-12T11:26:49.762Z,100633.65
2022-11-12T11:29:41.737Z,100637.08
2022-11-12T11:32:48.298Z,100631.58
2022-11-12T11:35:56.724Z,100635.59
2022-11-12T11:39:02.395Z,100631.71
2022-11-12T11:42:18.853Z,100635.44
2022-11-12T11:45:17.175Z,100629.05
2022-11-12T11:48:44.245Z,100624.33
2022-11-12T11:51:49.391Z,100629.17
2022-11-12T11:54:46.100Z,100625.13
2022-11-12T11:57:56.661Z,100628.03
2022-11-12T12:00:50.940Z,100631.27
2022-11-12T12:03:50.329Z,100625.97
2022-11-12T12:06:52.582Z,100621.27
2022-11-12T12:09:51.476Z,100624.46
2022-11-12T12:13:00.745Z,100622.25
2022-11-12T12:16:10.517Z,100617.83
2022-11-12T12:19:21.231Z,100619.16
2022-11-12T12:22:15.233Z,100614.37
2022-11-12T12:25:08.118Z,100612.34
2022-11-12T12:28:02.759Z,100612.97
2022-11-12T12:30:52.431Z,100620.52
2022-11-12T12:33:56.695Z,100618.54
2022-11-12T12:36:43.896Z,100616.34
2022-11-12T12:39:43.616Z,100621.93
2022-11-12T12:42:38.306Z,100617.30
2022-11-12T12:45:39.309Z,100617.25
2022-11-12T12:48:32.660Z,100626.15
2022-11-12T12:51:19.271Z,100617.20
2022-11-12T12:54:34.466Z,100615.92
2022-11-12T12:57:35.365Z,100623.90
2022-11-12T13:00:39.105Z,100615.81
2022-11-12T13:03:44.163Z,100617.41
2022-11-12T13:06:35.571Z,100615.80
2022-11-12T13:09:24.861Z,100620.37
2022-11-12T13:12:11.170Z,100605.84
2022-11-12T13:15:12.762Z,100613.02
2022-11-12T13:17:59.136Z,100616.31
2022-11-12T13:21:10.534Z,100609.63
2022-11-12T13:24:08.609Z,100613.26
2022-11-12T13:26:59.679Z,100607.27
2022-11-12T13:29:47.629Z,100608.27
2022-11-12T13:32:46.571Z,100605.77
2022-11-12T13:35:36.068Z,100610.73
2022-11-12T13:38:22.567Z,100614.20
2022-11-12T13:41:16.097Z,100613.06
2022-11-12T13:44:06.928Z,100610.23
2022-11-12T13:46:55.648Z,100602.86
2022-11-12T13:49:44.142Z,100612.21
2022-11-12T13:52:30.910Z,100609.59
2022-11-12T13:55:22.100Z,100617.06
2022-11-12T13:58:30.265Z,100611.68
2022-11-12T14:01:20.157Z,100616.77
2022-11-12T14:04:07.811Z,100610.16
2022-11-12T14:06:59.620Z,100606.67
2022-11-12T14:10:10.414Z,100606.08
2022-11-12T14:13:10.744Z,100605.42
2022-11-12T14:15:59.799Z,100601.41
2022-11-12T14:19:07.864Z,100596.23
2022-11-12T14:22:02.120Z,100603.35
2022-11-12T14:24:54.362Z,100600.19
2022-11-12T14:27:40.616Z,100600.85
2022-11-12T14:30:32.142Z,100592.38
2022-11-12T14:33:21.241Z,100598.23
2022-11-12T14:36:13.484Z,100596.20
2022-11-12T14:38:59.734Z,100597.91
2022-11-12T14:41:47.684Z,100603.60
2022-11-12T14:44:36.352Z,100613.40
2022-11-12T14:47:24.117Z,100610.80
2022-11-12T14:50:23.455Z,100613.84
2022-11-12T14:53:16.538Z,100613.54
2022-11-12T14:56:07.651Z,100609.95
2022-11-12T14:58:54.933Z,100611.08
2022-11-12T15:05:15.796Z,100618.41
2022-11-12T15:08:10.960Z,100614.88
2022-11-12T15:11:17.481Z,100615.89
2022-11-12T15:14:19.832Z,100619.95
2022-11-12T15:17:06.455Z,100617.98
2022-11-12T15:19:52.952Z,100625.95
2022-11-12T15:22:39.447Z,100628.40
2022-11-12T15:25:30.831Z,100623.54
2022-11-12T15:28:25.429Z,100623.58
2022-11-12T15:31:21.850Z,100627.90
2022-11-12T15:34:27.964Z,100632.85
2022-11-12T15:37:20.052Z,100635.63
2022-11-12T15:40:16.655Z,100636.02
2022-11-12T15:43:03.325Z,100635.06
2022-11-12T15:45:50.788Z,100633.86
2022-11-12T15:48:38.126Z,100636.08
2022-11-12T15:51:24.629Z,100639.84
2022-11-12T15:54:11.088Z,100637.52
2022-11-12T15:56:57.538Z,100644.47
2022-11-12T15:59:45.046Z,100645.89
2022-11-12T16:02:31.696Z,100645.40
2022-11-12T16:05:18.894Z,100645.95
2022-11-12T16:08:05.189Z,100642.44
2022-11-12T16:10:51.490Z,100642.70
2022-11-12T16:13:37.663Z,100650.13
2022-11-12T16:16:24.333Z,100651.39
2022-11-12T16:19:14.994Z,100656.09
2022-11-12T16:22:01.908Z,100650.84
2022-11-12T16:24:47.999Z,100652.04
2022-11-12T16:27:34.677Z,100652.30
2022-11-12T16:30:24.179Z,100648.27
2022-11-12T16:33:11.926Z,100649.40
2022-11-12T16:35:58.050Z,100650.79
2022-11-12T16:38:45.731Z,100656.60
2022-11-12T16:41:32.308Z,100653.45
2022-11-12T16:44:18.540Z,100652.86
2022-11-12T16:47:05.391Z,100650.59
2022-11-12T16:49:51.963Z,100654.51
2022-11-12T16:52:38.363Z,100657.75
2022-11-12T16:55:24.929Z,100660.91
2022-11-12T16:58:14.654Z,100653.92
2022-11-12T17:01:01.030Z,100655.38
2022-11-12T17:03:47.452Z,100651.85
2022-11-12T17:06:40.487Z,100650.99
2022-11-12T17:09:27.562Z,100649.77
2022-11-12T17:12:14.296Z,100649.63
2022-11-12T17:15:00.473Z,100655.44
2022-11-12T17:17:47.071Z,100657.80
2022-11-12T17:20:34.045Z,100660.54
2022-11-12T17:23:20.533Z,100664.34
2022-11-12T17:26:11.150Z,100667.41
2022-11-12T17:29:03.471Z,100664.16
2022-11-12T17:31:53.735Z,100667.42
2022-11-12T17:34:40.218Z,100660.40
2022-11-12T17:37:26.432Z,100654.27
2022-11-12T17:40:12.902Z,100655.41
2022-11-12T17:42:59.536Z,100660.67
2022-11-12T17:45:52.788Z,100656.48
2022-11-12T17:48:39.751Z,100657.74
2022-11-12T17:51:27.636Z,100658.71
2022-11-12T17:54:14.185Z,100654.63
2022-11-12T17:57:00.643Z,100653.27
2022-11-12T17:59:46.799Z,100646.06
2022-11-12T18:02:33.403Z,100647.23
2022-11-12T18:05:19.708Z,100655.41
2022-11-12T18:08:05.870Z,100651.40
2022-11-12T18:10:52.963Z,100654.37
2022-11-12T18:13:39.384Z,100657.31
2022-11-12T18:16:28.192Z,100653.77
2022-11-12T18:19:15.741Z,100644.23
2022-11-12T18:22:02.348Z,100633.21
2022-11-12T18:24:48.600Z,100641.16
2022-11-12T18:27:35.180Z,100646.05
2022-11-12T18:30:21.692Z,100642.30
2022-11-12T18:33:08.164Z,100644.38
2022-11-12T18:36:06.502Z,100643.27
2022-11-12T18:38:54.731Z,100645.30
2022-11-12T18:41:40.924Z,100645.80
2022-11-12T18:44:27.425Z,100654.02
2022-11-12T18:47:13.692Z,100656.02
2022-11-12T18:50:02.917Z,100653.30
2022-11-12T18:52:53.590Z,100652.42
2022-11-12T18:55:39.788Z,100657.00
2022-11-12T18:58:31.968Z,100658.58
2022-11-12T19:01:22.997Z,100653.20
2022-11-12T19:04:10.975Z,100651.80
2022-11-12T19:06:57.683Z,100651.61
2022-11-12T19:09:44.430Z,100653.83
2022-11-12T19:12:30.845Z,100651.56
2022-11-12T19:15:17.415Z,100651.60
2022-11-12T19:18:04.049Z,100656.05
2022-11-12T19:20:50.130Z,100655.66
2022-11-12T19:23:36.674Z,100654.36
2022-11-12T19:26:23.777Z,100650.63
2022-11-12T19:29:10.290Z,100651.73
2022-11-12T19:31:56.997Z,100653.79
2022-11-12T19:34:43.477Z,100651.15
2022-11-12T19:37:34.083Z,100651.44
2022-11-12T19:40:20.924Z,100658.60
2022-11-12T19:43:07.717Z,100659.97
2022-11-12T19:45:54.074Z,100654.11
2022-11-12T19:48:40.339Z,100656.44
2022-11-12T19:51:26.678Z,100661.04
2022-11-12T19:54:13.282Z,100655.48
2022-11-12T19:56:59.700Z,100659.21
2022-11-12T19:59:46.220Z,100666.97
2022-11-12T20:02:33.340Z,100663.61
2022-11-12T20:05:19.568Z,100662.15
2022-11-12T20:08:06.155Z,100667.98
2022-11-12T20:10:52.345Z,100665.80
2022-11-12T20:13:39.311Z,100662.94
2022-11-12T20:16:26.075Z,100669.63
2022-11-12T20:19:12.311Z,100667.11
2022-11-12T20:21:58.752Z,100669.17
2022-11-12T20:24:45.023Z,100668.23
2022-11-12T20:27:31.574Z,100666.19
2022-11-12T20:30:17.934Z,100667.98
2022-11-12T20:33:04.713Z,100668.54
2022-11-12T20:35:54.685Z,100664.36
2022-11-12T20:38:42.533Z,100666.34
2022-11-12T20:41:29.492Z,100667.34
2022-11-12T20:44:16.493Z,100667.25
2022-11-12T20:47:02.980Z,100664.86
2022-11-12T20:49:49.637Z,100665.98
2022-11-12T20:52:36.160Z,100668.00
2022-11-12T20:55:22.553Z,100669.17
2022-11-12T20:58:08.990Z,100671.83
2022-11-12T21:00:55.404Z,100674.83
2022-11-12T21:03:43.138Z,100674.25
2022-11-12T21:06:29.941Z,100674.24
2022-11-12T21:09:16.843Z,100675.18
2022-11-12T21:12:03.922Z,100675.30
2022-11-12T21:14:51.164Z,100671.02
2022-11-12T21:17:37.731Z,100674.32
2022-11-12T21:20:24.448Z,100676.96
2022-11-12T21:23:10.684Z,100674.23
2022-11-12T21:26:15.015Z,100676.11
2022-11-12T21:29:01.706Z,100664.16
2022-11-12T21:31:47.939Z,100670.20
2022-11-12T21:34:34.355Z,100670.40
2022-11-12T21:37:22.218Z,100664.91
2022-11-12T21:40:09.191Z,100668.80
2022-11-12T21:42:55.648Z,100670.20
2022-11-12T21:45:46.701Z,100669.63
2022-11-12T21:48:33.345Z,100658.95
2022-11-12T21:51:22.186Z,100667.20
2022-11-12T21:54:08.764Z,100665.48
2022-11-12T21:56:54.942Z,100664.46
2022-11-12T21:59:42.903Z,100666.37
2022-11-12T22:02:29.252Z,100667.95
2022-11-12T22:05:15.827Z,100670.30
2022-11-12T22:08:02.193Z,100672.06
2022-11-12T22:10:48.597Z,100666.98
2022-11-12T22:13:35.323Z,100667.91
2022-11-12T22:16:23.430Z,100669.80
2022-11-12T22:19:11.204Z,100673.06
2022-11-12T22:21:57.496Z,100668.58
2022-11-12T22:24:43.880Z,100658.32
2022-11-12T22:27:31.509Z,100660.55
2022-11-12T22:30:18.149Z,100664.13
2022-11-12T22:33:04.700Z,100670.54
2022-11-12T22:35:51.008Z,100668.88
2022-11-12T22:38:40.100Z,100669.34
2022-11-12T22:41:29.313Z,100676.73
2022-11-12T22:44:15.498Z,100668.14
2022-11-12T22:47:01.986Z,100671.20
2022-11-12T22:49:48.599Z,100674.53
2022-11-12T22:52:35.073Z,100675.92
2022-11-12T22:55:21.510Z,100678.36
2022-11-12T22:58:08.997Z,100673.23
2022-11-12T23:00:55.438Z,100669.54
2022-11-12T23:03:41.891Z,100671.55
2022-11-12T23:06:29.513Z,100673.59
2022-11-12T23:09:17.230Z,100667.11
2022-11-12T23:12:04.262Z,100668.14
2022-11-12T23:14:50.587Z,100673.81
2022-11-12T23:17:36.921Z,100670.15
2022-11-12T23:20:23.755Z,100663.56
2022-11-12T23:23:10.072Z,100669.82
2022-11-12T23:26:04.916Z,100671.84
2022-11-12T23:28:51.899Z,100668.13
2022-11-12T23:31:38.600Z,100664.03
2022-11-12T23:34:24.777Z,100664.16
2022-11-12T23:37:11.285Z,100665.55
2022-11-12T23:39:57.761Z,100666.58
2022-11-12T23:42:44.228Z,100659.22
2022-11-12T23:45:30.555Z,100661.33
2022-11-12T23:48:18.003Z,100661.59
2022-11-12T23:51:07.455Z,100660.07
2022-11-12T23:53:53.650Z,100656.91
2022-11-12T23:56:40.130Z,100659.39
2022-11-12T23:59:26.707Z,100657.92
